sensor_id;sensor_type;location;lat;lon;timestamp;P1;durP1;ratioP1;P2;durP2;ratioP2
51459;SDS011;37534;39.772;2.718;2024-01-30T00:01:13;34.38;;;22.77;;
51459;SDS011;37534;39.772;2.718;2024-01-30T00:03:38;34.80;;;21.98;;
51459;SDS011;37534;39.772;2.718;2024-01-30T00:06:04;30.48;;;19.85;;
51459;SDS011;37534;39.772;2.718;2024-01-30T00:08:30;27.50;;;20.98;;
51459;SDS011;37534;39.772;2.718;2024-01-30T00:10:55;33.35;;;21.38;;
51459;SDS011;37534;39.772;2.718;2024-01-30T00:13:21;35.70;;;21.83;;
51459;SDS011;37534;39.772;2.718;2024-01-30T00:15:46;38.28;;;21.92;;
51459;SDS011;37534;39.772;2.718;2024-01-30T00:18:12;35.08;;;21.33;;
51459;SDS011;37534;39.772;2.718;2024-01-30T00:20:37;28.90;;;19.60;;
51459;SDS011;37534;39.772;2.718;2024-01-30T00:23:03;31.13;;;21.88;;
51459;SDS011;37534;39.772;2.718;2024-01-30T00:25:29;37.25;;;26.17;;
51459;SDS011;37534;39.772;2.718;2024-01-30T00:27:55;40.17;;;24.08;;
51459;SDS011;37534;39.772;2.718;2024-01-30T00:30:21;38.38;;;22.52;;
51459;SDS011;37534;39.772;2.718;2024-01-30T00:32:47;33.83;;;22.02;;
51459;SDS011;37534;39.772;2.718;2024-01-30T00:35:12;26.15;;;19.63;;
51459;SDS011;37534;39.772;2.718;2024-01-30T00:37:38;21.25;;;14.05;;
51459;SDS011;37534;39.772;2.718;2024-01-30T00:40:04;16.80;;;11.85;;
51459;SDS011;37534;39.772;2.718;2024-01-30T00:42:31;24.17;;;15.48;;
51459;SDS011;37534;39.772;2.718;2024-01-30T00:44:56;23.55;;;15.25;;
51459;SDS011;37534;39.772;2.718;2024-01-30T00:47:22;27.35;;;18.15;;
51459;SDS011;37534;39.772;2.718;2024-01-30T00:49:48;26.23;;;17.25;;
51459;SDS011;37534;39.772;2.718;2024-01-30T00:52:13;23.80;;;15.20;;
51459;SDS011;37534;39.772;2.718;2024-01-30T00:54:39;19.55;;;14.60;;
51459;SDS011;37534;39.772;2.718;2024-01-30T00:57:04;21.58;;;15.48;;
51459;SDS011;37534;39.772;2.718;2024-01-30T00:59:30;26.63;;;16.90;;
51459;SDS011;37534;39.772;2.718;2024-01-30T01:01:56;30.10;;;15.20;;
51459;SDS011;37534;39.772;2.718;2024-01-30T01:04:21;26.80;;;15.73;;
51459;SDS011;37534;39.772;2.718;2024-01-30T01:06:47;22.23;;;13.55;;
51459;SDS011;37534;39.772;2.718;2024-01-30T01:09:12;32.75;;;15.90;;
51459;SDS011;37534;39.772;2.718;2024-01-30T01:11:38;35.17;;;16.30;;
51459;SDS011;37534;39.772;2.718;2024-01-30T01:14:04;43.25;;;16.13;;
51459;SDS011;37534;39.772;2.718;2024-01-30T01:16:30;26.15;;;14.75;;
51459;SDS011;37534;39.772;2.718;2024-01-30T01:18:55;30.45;;;15.20;;
51459;SDS011;37534;39.772;2.718;2024-01-30T01:21:21;22.77;;;14.18;;
51459;SDS011;37534;39.772;2.718;2024-01-30T01:23:46;16.60;;;13.32;;
51459;SDS011;37534;39.772;2.718;2024-01-30T01:26:12;23.10;;;13.80;;
51459;SDS011;37534;39.772;2.718;2024-01-30T01:28:40;17.17;;;11.10;;
51459;SDS011;37534;39.772;2.718;2024-01-30T01:31:06;20.40;;;12.00;;
51459;SDS011;37534;39.772;2.718;2024-01-30T01:33:32;15.90;;;10.93;;
51459;SDS011;37534;39.772;2.718;2024-01-30T01:35:58;17.83;;;11.30;;
51459;SDS011;37534;39.772;2.718;2024-01-30T01:38:27;12.07;;;9.98;;
51459;SDS011;37534;39.772;2.718;2024-01-30T01:40:53;19.40;;;10.13;;
51459;SDS011;37534;39.772;2.718;2024-01-30T01:43:19;24.20;;;11.80;;
51459;SDS011;37534;39.772;2.718;2024-01-30T01:45:49;16.65;;;9.10;;
51459;SDS011;37534;39.772;2.718;2024-01-30T01:48:14;12.85;;;8.38;;
51459;SDS011;37534;39.772;2.718;2024-01-30T01:50:40;17.83;;;8.23;;
51459;SDS011;37534;39.772;2.718;2024-01-30T01:53:07;10.88;;;7.95;;
51459;SDS011;37534;39.772;2.718;2024-01-30T01:55:34;16.25;;;8.63;;
51459;SDS011;37534;39.772;2.718;2024-01-30T01:58:00;10.40;;;7.28;;
51459;SDS011;37534;39.772;2.718;2024-01-30T02:00:27;19.15;;;8.10;;
51459;SDS011;37534;39.772;2.718;2024-01-30T02:02:54;10.05;;;7.68;;
51459;SDS011;37534;39.772;2.718;2024-01-30T02:05:20;16.98;;;7.68;;
51459;SDS011;37534;39.772;2.718;2024-01-30T02:07:46;11.07;;;7.32;;
51459;SDS011;37534;39.772;2.718;2024-01-30T02:10:12;18.48;;;7.28;;
51459;SDS011;37534;39.772;2.718;2024-01-30T02:12:38;9.07;;;6.80;;
51459;SDS011;37534;39.772;2.718;2024-01-30T02:15:03;11.02;;;7.07;;
51459;SDS011;37534;39.772;2.718;2024-01-30T02:17:30;10.65;;;6.93;;
51459;SDS011;37534;39.772;2.718;2024-01-30T02:19:55;16.48;;;7.47;;
51459;SDS011;37534;39.772;2.718;2024-01-30T02:22:21;11.60;;;7.43;;
51459;SDS011;37534;39.772;2.718;2024-01-30T02:24:47;10.20;;;8.30;;
51459;SDS011;37534;39.772;2.718;2024-01-30T02:27:13;13.70;;;7.85;;
51459;SDS011;37534;39.772;2.718;2024-01-30T02:29:38;14.65;;;8.57;;
51459;SDS011;37534;39.772;2.718;2024-01-30T02:32:04;14.38;;;8.07;;
51459;SDS011;37534;39.772;2.718;2024-01-30T02:34:30;13.18;;;7.32;;
51459;SDS011;37534;39.772;2.718;2024-01-30T02:36:56;13.25;;;7.00;;
51459;SDS011;37534;39.772;2.718;2024-01-30T02:39:21;11.60;;;7.40;;
51459;SDS011;37534;39.772;2.718;2024-01-30T02:41:47;8.32;;;6.45;;
51459;SDS011;37534;39.772;2.718;2024-01-30T02:44:12;15.55;;;7.65;;
51459;SDS011;37534;39.772;2.718;2024-01-30T02:46:38;9.43;;;6.57;;
51459;SDS011;37534;39.772;2.718;2024-01-30T02:49:03;6.18;;;5.43;;
51459;SDS011;37534;39.772;2.718;2024-01-30T02:51:29;11.38;;;6.93;;
51459;SDS011;37534;39.772;2.718;2024-01-30T02:53:54;10.27;;;6.85;;
51459;SDS011;37534;39.772;2.718;2024-01-30T02:56:20;9.77;;;6.03;;
51459;SDS011;37534;39.772;2.718;2024-01-30T02:58:46;7.25;;;5.15;;
51459;SDS011;37534;39.772;2.718;2024-01-30T03:01:11;7.88;;;5.47;;
51459;SDS011;37534;39.772;2.718;2024-01-30T03:03:37;8.43;;;5.28;;
51459;SDS011;37534;39.772;2.718;2024-01-30T03:06:02;7.05;;;6.00;;
51459;SDS011;37534;39.772;2.718;2024-01-30T03:08:28;7.50;;;5.35;;
51459;SDS011;37534;39.772;2.718;2024-01-30T03:10:53;6.60;;;5.53;;
51459;SDS011;37534;39.772;2.718;2024-01-30T03:13:19;12.40;;;6.38;;
51459;SDS011;37534;39.772;2.718;2024-01-30T03:15:45;10.48;;;5.50;;
51459;SDS011;37534;39.772;2.718;2024-01-30T03:18:10;9.40;;;6.43;;
51459;SDS011;37534;39.772;2.718;2024-01-30T03:20:36;10.90;;;5.65;;
51459;SDS011;37534;39.772;2.718;2024-01-30T03:23:01;13.35;;;7.18;;
51459;SDS011;37534;39.772;2.718;2024-01-30T03:25:27;6.50;;;5.25;;
51459;SDS011;37534;39.772;2.718;2024-01-30T03:27:53;6.82;;;5.82;;
51459;SDS011;37534;39.772;2.718;2024-01-30T03:30:19;10.18;;;5.18;;
51459;SDS011;37534;39.772;2.718;2024-01-30T03:32:44;6.72;;;4.65;;
51459;SDS011;37534;39.772;2.718;2024-01-30T03:35:10;14.27;;;5.03;;
51459;SDS011;37534;39.772;2.718;2024-01-30T03:37:35;6.53;;;4.50;;
51459;SDS011;37534;39.772;2.718;2024-01-30T03:40:02;8.20;;;4.22;;
51459;SDS011;37534;39.772;2.718;2024-01-30T03:42:28;10.18;;;5.53;;
51459;SDS011;37534;39.772;2.718;2024-01-30T03:44:53;7.88;;;4.90;;
51459;SDS011;37534;39.772;2.718;2024-01-30T03:47:20;6.80;;;5.18;;
51459;SDS011;37534;39.772;2.718;2024-01-30T03:49:46;8.85;;;4.90;;
51459;SDS011;37534;39.772;2.718;2024-01-30T03:52:12;8.00;;;5.43;;
51459;SDS011;37534;39.772;2.718;2024-01-30T03:54:37;4.50;;;4.07;;
51459;SDS011;37534;39.772;2.718;2024-01-30T03:57:03;10.93;;;6.00;;
51459;SDS011;37534;39.772;2.718;2024-01-30T03:59:29;6.00;;;4.57;;
51459;SDS011;37534;39.772;2.718;2024-01-30T04:01:54;7.05;;;5.55;;
51459;SDS011;37534;39.772;2.718;2024-01-30T04:04:20;6.53;;;4.90;;
51459;SDS011;37534;39.772;2.718;2024-01-30T04:06:46;16.33;;;5.68;;
51459;SDS011;37534;39.772;2.718;2024-01-30T04:09:12;8.82;;;5.85;;
51459;SDS011;37534;39.772;2.718;2024-01-30T04:11:38;9.38;;;4.80;;
51459;SDS011;37534;39.772;2.718;2024-01-30T04:14:05;10.75;;;5.40;;
51459;SDS011;37534;39.772;2.718;2024-01-30T04:16:30;9.90;;;5.00;;
51459;SDS011;37534;39.772;2.718;2024-01-30T04:18:56;8.02;;;5.20;;
51459;SDS011;37534;39.772;2.718;2024-01-30T04:21:21;8.82;;;4.45;;
51459;SDS011;37534;39.772;2.718;2024-01-30T04:23:47;6.95;;;4.90;;
51459;SDS011;37534;39.772;2.718;2024-01-30T04:26:13;4.88;;;4.35;;
51459;SDS011;37534;39.772;2.718;2024-01-30T04:28:41;5.45;;;4.32;;
51459;SDS011;37534;39.772;2.718;2024-01-30T04:31:07;8.57;;;5.15;;
51459;SDS011;37534;39.772;2.718;2024-01-30T04:33:32;5.18;;;4.68;;
51459;SDS011;37534;39.772;2.718;2024-01-30T04:35:58;6.85;;;5.03;;
51459;SDS011;37534;39.772;2.718;2024-01-30T04:38:24;6.25;;;4.60;;
51459;SDS011;37534;39.772;2.718;2024-01-30T04:40:49;8.43;;;5.00;;
51459;SDS011;37534;39.772;2.718;2024-01-30T04:43:14;6.75;;;5.45;;
51459;SDS011;37534;39.772;2.718;2024-01-30T04:45:41;7.50;;;5.15;;
51459;SDS011;37534;39.772;2.718;2024-01-30T04:48:07;6.30;;;4.57;;
51459;SDS011;37534;39.772;2.718;2024-01-30T04:50:32;7.38;;;5.18;;
51459;SDS011;37534;39.772;2.718;2024-01-30T04:52:58;8.30;;;5.82;;
51459;SDS011;37534;39.772;2.718;2024-01-30T04:55:24;9.95;;;5.32;;
51459;SDS011;37534;39.772;2.718;2024-01-30T04:57:49;8.38;;;5.53;;
51459;SDS011;37534;39.772;2.718;2024-01-30T05:00:15;7.93;;;5.32;;
51459;SDS011;37534;39.772;2.718;2024-01-30T05:02:41;14.23;;;6.30;;
51459;SDS011;37534;39.772;2.718;2024-01-30T05:05:06;15.35;;;6.53;;
51459;SDS011;37534;39.772;2.718;2024-01-30T05:07:32;8.57;;;6.18;;
51459;SDS011;37534;39.772;2.718;2024-01-30T05:09:59;8.07;;;5.55;;
51459;SDS011;37534;39.772;2.718;2024-01-30T05:12:25;8.52;;;5.13;;
51459;SDS011;37534;39.772;2.718;2024-01-30T05:14:50;11.90;;;5.93;;
51459;SDS011;37534;39.772;2.718;2024-01-30T05:17:17;8.52;;;5.53;;
51459;SDS011;37534;39.772;2.718;2024-01-30T05:19:43;14.45;;;5.85;;
51459;SDS011;37534;39.772;2.718;2024-01-30T05:22:09;9.73;;;6.18;;
51459;SDS011;37534;39.772;2.718;2024-01-30T05:24:35;15.63;;;6.50;;
51459;SDS011;37534;39.772;2.718;2024-01-30T05:27:02;8.00;;;5.60;;
51459;SDS011;37534;39.772;2.718;2024-01-30T05:29:27;7.90;;;6.05;;
51459;SDS011;37534;39.772;2.718;2024-01-30T05:31:53;12.57;;;6.47;;
51459;SDS011;37534;39.772;2.718;2024-01-30T05:34:18;15.80;;;7.32;;
51459;SDS011;37534;39.772;2.718;2024-01-30T05:36:44;10.02;;;6.40;;
51459;SDS011;37534;39.772;2.718;2024-01-30T05:39:10;19.00;;;7.38;;
51459;SDS011;37534;39.772;2.718;2024-01-30T05:41:36;12.27;;;7.25;;
51459;SDS011;37534;39.772;2.718;2024-01-30T05:44:01;12.45;;;7.70;;
51459;SDS011;37534;39.772;2.718;2024-01-30T05:46:27;20.75;;;8.57;;
51459;SDS011;37534;39.772;2.718;2024-01-30T05:48:52;8.57;;;6.28;;
51459;SDS011;37534;39.772;2.718;2024-01-30T05:51:18;7.07;;;5.85;;
51459;SDS011;37534;39.772;2.718;2024-01-30T05:53:43;7.47;;;5.90;;
51459;SDS011;37534;39.772;2.718;2024-01-30T05:56:09;11.85;;;7.28;;
51459;SDS011;37534;39.772;2.718;2024-01-30T05:58:34;23.70;;;9.05;;
51459;SDS011;37534;39.772;2.718;2024-01-30T06:01:02;16.83;;;10.00;;
51459;SDS011;37534;39.772;2.718;2024-01-30T06:03:28;21.48;;;10.93;;
51459;SDS011;37534;39.772;2.718;2024-01-30T06:05:53;40.45;;;13.55;;
51459;SDS011;37534;39.772;2.718;2024-01-30T06:08:19;13.43;;;11.40;;
51459;SDS011;37534;39.772;2.718;2024-01-30T06:10:44;10.15;;;7.47;;
51459;SDS011;37534;39.772;2.718;2024-01-30T06:13:10;12.07;;;6.85;;
51459;SDS011;37534;39.772;2.718;2024-01-30T06:15:36;18.50;;;6.32;;
51459;SDS011;37534;39.772;2.718;2024-01-30T06:18:01;10.48;;;7.50;;
51459;SDS011;37534;39.772;2.718;2024-01-30T06:20:27;14.90;;;8.07;;
51459;SDS011;37534;39.772;2.718;2024-01-30T06:22:53;12.90;;;7.50;;
51459;SDS011;37534;39.772;2.718;2024-01-30T06:25:18;8.45;;;6.20;;
51459;SDS011;37534;39.772;2.718;2024-01-30T06:27:44;7.80;;;6.25;;
51459;SDS011;37534;39.772;2.718;2024-01-30T06:30:10;9.25;;;5.55;;
51459;SDS011;37534;39.772;2.718;2024-01-30T06:32:36;16.42;;;7.10;;
51459;SDS011;37534;39.772;2.718;2024-01-30T06:35:02;8.75;;;5.65;;
51459;SDS011;37534;39.772;2.718;2024-01-30T06:37:28;11.00;;;6.22;;
51459;SDS011;37534;39.772;2.718;2024-01-30T06:39:54;10.02;;;6.43;;
51459;SDS011;37534;39.772;2.718;2024-01-30T06:42:19;9.38;;;5.75;;
51459;SDS011;37534;39.772;2.718;2024-01-30T06:44:45;8.45;;;6.35;;
51459;SDS011;37534;39.772;2.718;2024-01-30T06:47:10;14.35;;;7.72;;
51459;SDS011;37534;39.772;2.718;2024-01-30T06:49:36;17.80;;;11.88;;
51459;SDS011;37534;39.772;2.718;2024-01-30T06:52:06;14.88;;;9.93;;
51459;SDS011;37534;39.772;2.718;2024-01-30T06:54:31;8.88;;;6.82;;
51459;SDS011;37534;39.772;2.718;2024-01-30T06:56:58;15.60;;;9.85;;
51459;SDS011;37534;39.772;2.718;2024-01-30T06:59:24;27.63;;;12.98;;
51459;SDS011;37534;39.772;2.718;2024-01-30T07:01:49;17.92;;;11.48;;
51459;SDS011;37534;39.772;2.718;2024-01-30T07:04:15;17.90;;;10.52;;
51459;SDS011;37534;39.772;2.718;2024-01-30T07:06:41;13.10;;;9.02;;
51459;SDS011;37534;39.772;2.718;2024-01-30T07:09:07;15.02;;;10.18;;
51459;SDS011;37534;39.772;2.718;2024-01-30T07:11:33;20.00;;;11.68;;
51459;SDS011;37534;39.772;2.718;2024-01-30T07:13:59;16.70;;;11.73;;
51459;SDS011;37534;39.772;2.718;2024-01-30T07:16:24;19.23;;;13.07;;
51459;SDS011;37534;39.772;2.718;2024-01-30T07:18:50;27.45;;;15.18;;
51459;SDS011;37534;39.772;2.718;2024-01-30T07:21:15;27.33;;;17.95;;
51459;SDS011;37534;39.772;2.718;2024-01-30T07:23:41;21.27;;;15.13;;
51459;SDS011;37534;39.772;2.718;2024-01-30T07:26:08;22.00;;;15.05;;
51459;SDS011;37534;39.772;2.718;2024-01-30T07:28:34;25.38;;;16.95;;
51459;SDS011;37534;39.772;2.718;2024-01-30T07:31:03;28.63;;;16.67;;
51459;SDS011;37534;39.772;2.718;2024-01-30T07:33:28;21.77;;;16.38;;
51459;SDS011;37534;39.772;2.718;2024-01-30T07:35:54;21.75;;;18.13;;
51459;SDS011;37534;39.772;2.718;2024-01-30T07:38:19;18.05;;;16.02;;
51459;SDS011;37534;39.772;2.718;2024-01-30T07:40:45;20.48;;;15.77;;
51459;SDS011;37534;39.772;2.718;2024-01-30T07:43:11;22.15;;;15.63;;
51459;SDS011;37534;39.772;2.718;2024-01-30T07:45:36;24.25;;;15.80;;
51459;SDS011;37534;39.772;2.718;2024-01-30T07:48:03;18.40;;;13.43;;
51459;SDS011;37534;39.772;2.718;2024-01-30T07:50:31;25.40;;;13.60;;
51459;SDS011;37534;39.772;2.718;2024-01-30T07:52:58;26.85;;;16.27;;
51459;SDS011;37534;39.772;2.718;2024-01-30T07:55:24;24.30;;;16.27;;
51459;SDS011;37534;39.772;2.718;2024-01-30T07:57:52;25.73;;;18.67;;
51459;SDS011;37534;39.772;2.718;2024-01-30T08:00:18;23.90;;;16.60;;
51459;SDS011;37534;39.772;2.718;2024-01-30T08:02:47;23.50;;;17.73;;
51459;SDS011;37534;39.772;2.718;2024-01-30T08:05:13;37.00;;;24.67;;
51459;SDS011;37534;39.772;2.718;2024-01-30T08:07:40;42.17;;;27.15;;
51459;SDS011;37534;39.772;2.718;2024-01-30T08:10:07;39.10;;;23.92;;
51459;SDS011;37534;39.772;2.718;2024-01-30T08:12:33;32.45;;;23.83;;
51459;SDS011;37534;39.772;2.718;2024-01-30T08:14:59;39.03;;;25.35;;
51459;SDS011;37534;39.772;2.718;2024-01-30T08:17:24;47.72;;;24.42;;
51459;SDS011;37534;39.772;2.718;2024-01-30T08:19:50;32.10;;;22.05;;
51459;SDS011;37534;39.772;2.718;2024-01-30T08:22:15;36.65;;;20.67;;
51459;SDS011;37534;39.772;2.718;2024-01-30T08:24:41;29.58;;;19.25;;
51459;SDS011;37534;39.772;2.718;2024-01-30T08:27:07;38.83;;;22.35;;
51459;SDS011;37534;39.772;2.718;2024-01-30T08:29:36;35.13;;;25.33;;
51459;SDS011;37534;39.772;2.718;2024-01-30T08:32:01;31.58;;;25.42;;
51459;SDS011;37534;39.772;2.718;2024-01-30T08:34:27;42.63;;;20.75;;
51459;SDS011;37534;39.772;2.718;2024-01-30T08:36:53;35.70;;;21.75;;
51459;SDS011;37534;39.772;2.718;2024-01-30T08:39:19;29.00;;;21.52;;
51459;SDS011;37534;39.772;2.718;2024-01-30T08:41:45;28.67;;;23.33;;
51459;SDS011;37534;39.772;2.718;2024-01-30T08:44:10;29.83;;;22.55;;
51459;SDS011;37534;39.772;2.718;2024-01-30T08:46:36;25.75;;;20.10;;
51459;SDS011;37534;39.772;2.718;2024-01-30T08:49:02;31.88;;;20.45;;
51459;SDS011;37534;39.772;2.718;2024-01-30T08:51:29;34.22;;;21.90;;
51459;SDS011;37534;39.772;2.718;2024-01-30T08:53:55;21.70;;;18.67;;
51459;SDS011;37534;39.772;2.718;2024-01-30T08:56:20;25.50;;;19.40;;
51459;SDS011;37534;39.772;2.718;2024-01-30T08:58:46;23.52;;;19.30;;
51459;SDS011;37534;39.772;2.718;2024-01-30T09:01:11;29.08;;;18.10;;
51459;SDS011;37534;39.772;2.718;2024-01-30T09:03:37;50.42;;;21.23;;
51459;SDS011;37534;39.772;2.718;2024-01-30T09:06:08;32.25;;;23.85;;
51459;SDS011;37534;39.772;2.718;2024-01-30T09:08:34;50.60;;;24.08;;
51459;SDS011;37534;39.772;2.718;2024-01-30T09:11:00;28.92;;;22.95;;
51459;SDS011;37534;39.772;2.718;2024-01-30T09:13:25;40.30;;;26.05;;
51459;SDS011;37534;39.772;2.718;2024-01-30T09:15:51;25.20;;;22.50;;
51459;SDS011;37534;39.772;2.718;2024-01-30T09:18:17;29.48;;;21.60;;
51459;SDS011;37534;39.772;2.718;2024-01-30T09:20:43;23.70;;;19.08;;
51459;SDS011;37534;39.772;2.718;2024-01-30T09:23:10;26.10;;;18.30;;
51459;SDS011;37534;39.772;2.718;2024-01-30T09:25:36;25.95;;;18.17;;
51459;SDS011;37534;39.772;2.718;2024-01-30T09:28:01;26.80;;;22.40;;
51459;SDS011;37534;39.772;2.718;2024-01-30T09:30:27;30.38;;;19.90;;
51459;SDS011;37534;39.772;2.718;2024-01-30T09:32:52;26.45;;;17.48;;
51459;SDS011;37534;39.772;2.718;2024-01-30T09:35:18;23.05;;;14.70;;
51459;SDS011;37534;39.772;2.718;2024-01-30T09:37:43;17.27;;;12.00;;
51459;SDS011;37534;39.772;2.718;2024-01-30T09:40:09;28.15;;;14.90;;
51459;SDS011;37534;39.772;2.718;2024-01-30T09:42:35;18.17;;;13.73;;
51459;SDS011;37534;39.772;2.718;2024-01-30T09:45:04;19.60;;;14.20;;
51459;SDS011;37534;39.772;2.718;2024-01-30T09:47:37;15.23;;;11.52;;
51459;SDS011;37534;39.772;2.718;2024-01-30T09:50:08;24.08;;;12.93;;
51459;SDS011;37534;39.772;2.718;2024-01-30T09:52:34;25.02;;;14.20;;
51459;SDS011;37534;39.772;2.718;2024-01-30T09:55:00;23.10;;;12.30;;
51459;SDS011;37534;39.772;2.718;2024-01-30T09:57:26;24.67;;;12.77;;
51459;SDS011;37534;39.772;2.718;2024-01-30T09:59:52;14.10;;;10.05;;
51459;SDS011;37534;39.772;2.718;2024-01-30T10:02:19;13.20;;;8.95;;
51459;SDS011;37534;39.772;2.718;2024-01-30T10:04:47;8.27;;;7.47;;
51459;SDS011;37534;39.772;2.718;2024-01-30T10:07:14;11.07;;;7.75;;
51459;SDS011;37534;39.772;2.718;2024-01-30T10:09:40;12.90;;;8.82;;
51459;SDS011;37534;39.772;2.718;2024-01-30T10:12:06;17.48;;;11.60;;
51459;SDS011;37534;39.772;2.718;2024-01-30T10:14:32;11.02;;;8.70;;
51459;SDS011;37534;39.772;2.718;2024-01-30T10:16:58;20.52;;;15.77;;
51459;SDS011;37534;39.772;2.718;2024-01-30T10:19:24;21.48;;;14.93;;
51459;SDS011;37534;39.772;2.718;2024-01-30T10:21:49;18.60;;;15.43;;
51459;SDS011;37534;39.772;2.718;2024-01-30T10:24:15;18.13;;;14.55;;
51459;SDS011;37534;39.772;2.718;2024-01-30T10:26:43;16.63;;;9.70;;
51459;SDS011;37534;39.772;2.718;2024-01-30T10:29:09;17.27;;;9.23;;
51459;SDS011;37534;39.772;2.718;2024-01-30T10:31:34;9.95;;;7.03;;
51459;SDS011;37534;39.772;2.718;2024-01-30T10:34:00;10.43;;;7.50;;
51459;SDS011;37534;39.772;2.718;2024-01-30T10:36:28;12.05;;;7.18;;
51459;SDS011;37534;39.772;2.718;2024-01-30T10:38:55;15.82;;;8.52;;
51459;SDS011;37534;39.772;2.718;2024-01-30T10:41:27;16.73;;;8.38;;
51459;SDS011;37534;39.772;2.718;2024-01-30T10:44:18;9.50;;;6.82;;
51459;SDS011;37534;39.772;2.718;2024-01-30T10:46:48;11.20;;;8.32;;
51459;SDS011;37534;39.772;2.718;2024-01-30T10:49:21;12.48;;;9.50;;
51459;SDS011;37534;39.772;2.718;2024-01-30T10:51:48;18.98;;;8.90;;
51459;SDS011;37534;39.772;2.718;2024-01-30T10:54:16;14.82;;;8.02;;
51459;SDS011;37534;39.772;2.718;2024-01-30T10:56:43;14.70;;;8.07;;
51459;SDS011;37534;39.772;2.718;2024-01-30T10:59:09;9.52;;;6.45;;
51459;SDS011;37534;39.772;2.718;2024-01-30T11:01:35;12.50;;;6.85;;
51459;SDS011;37534;39.772;2.718;2024-01-30T11:04:01;12.73;;;6.25;;
51459;SDS011;37534;39.772;2.718;2024-01-30T11:06:27;9.98;;;6.18;;
51459;SDS011;37534;39.772;2.718;2024-01-30T11:11:29;14.43;;;4.72;;
51459;SDS011;37534;39.772;2.718;2024-01-30T11:13:54;9.98;;;5.60;;
51459;SDS011;37534;39.772;2.718;2024-01-30T11:16:20;11.05;;;5.63;;
51459;SDS011;37534;39.772;2.718;2024-01-30T11:18:49;15.38;;;4.05;;
51459;SDS011;37534;39.772;2.718;2024-01-30T11:21:16;13.68;;;4.10;;
51459;SDS011;37534;39.772;2.718;2024-01-30T11:23:42;9.10;;;4.47;;
51459;SDS011;37534;39.772;2.718;2024-01-30T11:26:10;9.60;;;5.57;;
51459;SDS011;37534;39.772;2.718;2024-01-30T11:28:37;15.05;;;4.70;;
51459;SDS011;37534;39.772;2.718;2024-01-30T11:31:06;10.80;;;5.60;;
51459;SDS011;37534;39.772;2.718;2024-01-30T11:33:32;16.10;;;6.13;;
51459;SDS011;37534;39.772;2.718;2024-01-30T11:35:59;14.77;;;4.97;;
51459;SDS011;37534;39.772;2.718;2024-01-30T11:38:26;10.30;;;4.97;;
51459;SDS011;37534;39.772;2.718;2024-01-30T11:40:53;12.15;;;3.95;;
51459;SDS011;37534;39.772;2.718;2024-01-30T11:43:22;11.25;;;3.75;;
51459;SDS011;37534;39.772;2.718;2024-01-30T11:45:48;12.57;;;4.68;;
51459;SDS011;37534;39.772;2.718;2024-01-30T11:48:14;8.75;;;3.47;;
51459;SDS011;37534;39.772;2.718;2024-01-30T11:50:40;12.93;;;4.30;;
51459;SDS011;37534;39.772;2.718;2024-01-30T11:53:06;10.05;;;3.70;;
51459;SDS011;37534;39.772;2.718;2024-01-30T11:55:32;8.00;;;3.92;;
51459;SDS011;37534;39.772;2.718;2024-01-30T11:57:59;8.05;;;4.15;;
51459;SDS011;37534;39.772;2.718;2024-01-30T12:00:25;13.07;;;4.30;;
51459;SDS011;37534;39.772;2.718;2024-01-30T12:02:51;9.30;;;3.28;;
51459;SDS011;37534;39.772;2.718;2024-01-30T12:05:21;8.85;;;2.92;;
51459;SDS011;37534;39.772;2.718;2024-01-30T12:07:47;13.10;;;3.40;;
51459;SDS011;37534;39.772;2.718;2024-01-30T12:10:13;9.73;;;3.80;;
51459;SDS011;37534;39.772;2.718;2024-01-30T12:12:39;7.65;;;3.92;;
51459;SDS011;37534;39.772;2.718;2024-01-30T12:15:07;8.85;;;3.75;;
51459;SDS011;37534;39.772;2.718;2024-01-30T12:17:33;11.57;;;3.92;;
51459;SDS011;37534;39.772;2.718;2024-01-30T12:20:09;10.70;;;3.88;;
51459;SDS011;37534;39.772;2.718;2024-01-30T12:22:36;12.68;;;3.70;;
51459;SDS011;37534;39.772;2.718;2024-01-30T12:25:19;5.30;;;3.35;;
51459;SDS011;37534;39.772;2.718;2024-01-30T12:27:46;13.57;;;2.97;;
51459;SDS011;37534;39.772;2.718;2024-01-30T12:30:17;6.50;;;3.33;;
51459;SDS011;37534;39.772;2.718;2024-01-30T12:32:44;4.95;;;2.60;;
51459;SDS011;37534;39.772;2.718;2024-01-30T12:35:14;7.22;;;3.00;;
51459;SDS011;37534;39.772;2.718;2024-01-30T12:37:41;7.33;;;3.27;;
51459;SDS011;37534;39.772;2.718;2024-01-30T12:40:08;11.02;;;3.92;;
51459;SDS011;37534;39.772;2.718;2024-01-30T12:42:35;7.85;;;3.80;;
51459;SDS011;37534;39.772;2.718;2024-01-30T12:45:04;10.50;;;3.67;;
51459;SDS011;37534;39.772;2.718;2024-01-30T12:47:31;9.27;;;3.35;;
51459;SDS011;37534;39.772;2.718;2024-01-30T12:49:56;11.05;;;3.65;;
51459;SDS011;37534;39.772;2.718;2024-01-30T12:52:22;10.25;;;4.00;;
51459;SDS011;37534;39.772;2.718;2024-01-30T12:54:48;6.20;;;3.63;;
51459;SDS011;37534;39.772;2.718;2024-01-30T12:57:15;9.23;;;3.70;;
51459;SDS011;37534;39.772;2.718;2024-01-30T12:59:41;10.75;;;4.57;;
51459;SDS011;37534;39.772;2.718;2024-01-30T13:02:07;8.45;;;4.15;;
51459;SDS011;37534;39.772;2.718;2024-01-30T13:04:34;15.90;;;4.43;;
51459;SDS011;37534;39.772;2.718;2024-01-30T13:07:00;6.57;;;3.53;;
51459;SDS011;37534;39.772;2.718;2024-01-30T13:09:26;11.40;;;4.18;;
51459;SDS011;37534;39.772;2.718;2024-01-30T13:11:52;12.88;;;3.88;;
51459;SDS011;37534;39.772;2.718;2024-01-30T13:14:18;11.25;;;3.63;;
51459;SDS011;37534;39.772;2.718;2024-01-30T13:16:44;12.73;;;3.58;;
51459;SDS011;37534;39.772;2.718;2024-01-30T13:19:10;16.15;;;5.57;;
51459;SDS011;37534;39.772;2.718;2024-01-30T13:21:35;6.38;;;3.47;;
51459;SDS011;37534;39.772;2.718;2024-01-30T13:24:03;6.05;;;3.80;;
51459;SDS011;37534;39.772;2.718;2024-01-30T13:26:29;12.45;;;4.85;;
51459;SDS011;37534;39.772;2.718;2024-01-30T13:28:56;22.20;;;7.57;;
51459;SDS011;37534;39.772;2.718;2024-01-30T13:31:21;15.73;;;6.57;;
51459;SDS011;37534;39.772;2.718;2024-01-30T13:33:47;19.88;;;7.38;;
51459;SDS011;37534;39.772;2.718;2024-01-30T13:36:14;20.73;;;9.60;;
51459;SDS011;37534;39.772;2.718;2024-01-30T13:38:39;24.10;;;13.15;;
51459;SDS011;37534;39.772;2.718;2024-01-30T13:41:05;25.50;;;12.25;;
51459;SDS011;37534;39.772;2.718;2024-01-30T13:43:31;23.65;;;16.42;;
51459;SDS011;37534;39.772;2.718;2024-01-30T13:45:56;19.50;;;13.55;;
51459;SDS011;37534;39.772;2.718;2024-01-30T13:48:22;20.38;;;11.25;;
51459;SDS011;37534;39.772;2.718;2024-01-30T13:50:48;10.38;;;4.55;;
51459;SDS011;37534;39.772;2.718;2024-01-30T13:53:13;8.48;;;4.38;;
51459;SDS011;37534;39.772;2.718;2024-01-30T13:55:39;25.73;;;9.35;;
51459;SDS011;37534;39.772;2.718;2024-01-30T13:58:05;50.63;;;32.88;;
51459;SDS011;37534;39.772;2.718;2024-01-30T14:00:31;29.13;;;19.20;;
51459;SDS011;37534;39.772;2.718;2024-01-30T14:02:57;34.90;;;19.13;;
51459;SDS011;37534;39.772;2.718;2024-01-30T14:05:24;45.42;;;25.90;;
51459;SDS011;37534;39.772;2.718;2024-01-30T14:07:50;20.10;;;9.80;;
51459;SDS011;37534;39.772;2.718;2024-01-30T14:10:16;10.50;;;4.78;;
51459;SDS011;37534;39.772;2.718;2024-01-30T14:12:43;13.27;;;7.70;;
51459;SDS011;37534;39.772;2.718;2024-01-30T14:15:09;65.38;;;36.03;;
51459;SDS011;37534;39.772;2.718;2024-01-30T14:17:35;40.08;;;24.88;;
51459;SDS011;37534;39.772;2.718;2024-01-30T14:20:01;21.90;;;11.82;;
51459;SDS011;37534;39.772;2.718;2024-01-30T14:22:30;32.38;;;18.55;;
51459;SDS011;37534;39.772;2.718;2024-01-30T14:24:56;45.28;;;24.65;;
51459;SDS011;37534;39.772;2.718;2024-01-30T14:27:22;55.75;;;32.58;;
51459;SDS011;37534;39.772;2.718;2024-01-30T14:29:47;15.70;;;9.65;;